Tiempo atmosférico en la estación meteorológica de Badajoz Aeropuerto, Badajoz (185 m.)



Fecha
DESCASC
Temp. máxima en grados centígrados (hora)
DESCASC
Temp. mínima en grados centígrados (hora)
DESCASC
Temp. media en grados centígrados
DESCASC
Racha de viento máxima en m/sg (hora)
DESCASC
Velocidad máxima media en intervalos de 10 minutos(hora)
DESCASC
Precipitaciones diarias en mm
DESCASC
Precipitaciones de 00:00 a 06:00 en mm
DESCASC
Precipitaciones de 06:00 a 12:00 en mm
DESCASC
Precipitaciones de 12:00 a 18:00 en mm
DESCASC
Precipitaciones de 18:00 a 24:00 en mm
DESCASC
18-01-2018 17.7 (16:10) 1.8 (09:10) 9.8 6.11 (17:00) 4.17 (16:40) 0 0 0 0 0
17-01-2018 16 (15:40) 6.2 (23:59) 11.1 5.83 (00:30) 3.61 (00:40) 0 0 0 0 0
16-01-2018 13.7 (15:30) 2.8 (09:10) 8.2 6.39 (18:10) 4.17 (15:30) 0 0 0 0 0
15-01-2018 13.3 (16:30) -0.7 (09:10) 6.3 3.06 (01:00) 2.5 (09:10) 0 0 0 0 0
14-01-2018 12.3 (16:00) 4 (00:00) 8.2 7.5 (16:00) 4.17 (11:50) 0 0 0 0 0
13-01-2018 13.2 (14:40) 4.1 (00:00) 8.6 13.89 (17:30) 8.06 (17:40) 6.2 0 5.2 1 0
12-01-2018 10.9 (15:10) -0.4 (00:00) 5.2 4.17 (01:00) 2.78 (11:00) 0 0 0 0 0
11-01-2018 14.5 (15:40) 5.8 (00:00) 10.2 11.11 (16:40) 7.22 (17:20) 0 0 0 0 0
10-01-2018 16.1 (15:00) 7.4 (00:00) 11.8 13.33 (16:00) 7.22 (16:10) 1 0 0 1 0
09-01-2018 10.1 (15:00) 1.1 (00:00) 5.6 5.56 (13:10) 3.89 (18:20) 8.6 0 0.6 4.6 3.4
08-01-2018 11.4 (15:20) 4.2 (00:00) 7.8 6.39 (13:20) 4.17 (07:30) 4.4 4.2 0.2 0 0
07-01-2018 10.3 (14:40) 3.8 (00:00) 7.1 7.22 (04:20) 4.44 (04:20) 4 0 0 0 4
06-01-2018 11.9 (16:00) 3.8 (00:00) 7.8 11.39 (15:20) 8.61 (13:20) 0 0 0 0 0
05-01-2018 14.4 (11:40) 9.2 (00:00) 11.8 14.17 (11:00) 6.67 (10:00) 12.4 0 0 8.6 3.8
04-01-2018 16.6 (15:10) 11.7 (09:10) 14.2 5.83 (22:20) 3.06 (12:40) 0 0 0 0 0
03-01-2018 17 (15:50) 11.2 (00:00) 14.1 5 (09:40) 3.61 (09:50) 0 0 0 0 0
02-01-2018 15.7 (14:20) 5 (00:00) 10.3 7.22 (14:40) 5.28 (14:40) 0 0 0 0 0
01-01-2018 14.7 (15:20) 1.3 (00:00) 8 7.5 (16:20) 5.83 (16:20) 0 0 0 0 0
31-12-2017 16.7 (14:40) 6.9 (00:00) 11.8 10.28 (16:30) 6.67 (17:30) 0.2 0 0 0.2 0
30-12-2017 18.5 (16:10) 9.2 (00:00) 13.8 3.89 (12:50) 2.5 (12:20) 0 0 0 0 0
29-12-2017 16.9 (13:50) 13.4 (00:00) 15.1 7.78 (09:30) 4.72 (09:30) 0.2 0 0 0 0.2
28-12-2017 17.9 (13:40) 11.4 (00:00) 14.6 12.78 (12:40) 7.22 (13:40) 0 0 0 0 0
27-12-2017 14.6 (17:10) 10.5 (00:00) 12.6 13.89 (06:30) 8.61 (06:30) 3 2.4 0.6 0 0
26-12-2017 12.7 (16:10) 6.9 (00:00) 9.8 10.83 (21:20) 3.89 (23:30) 1.2 0.6 0 0 0.6
25-12-2017 15 (15:30) 5 (00:00) 10 7.22 (15:50) 3.06 (15:50) 1 0.4 0.2 0 0.4
24-12-2017 16.4 (15:30) 3.4 (00:00) 9.9 6.11 (15:00) 4.17 (15:40) 0 0 0 0 0

Gráficas

Temp. máximas Temp. mínimas Temp. medias Precipitaciones Rachas de viento máximas Velocidades máximas media en intervalos de 10 minutos

Datos horarios

Fecha y hora oficial Temperatura (ºC) Velocidad del viento (km/h) Dirección del viento Racha (km/h) Dirección de racha Precipitación (mm) Presión (hPa) Tendencia (hPa) Humedad (%)
2018-01-22 23:00:00 8.5 8 Este 12 Este 0 1007.4 0.2 100
2018-01-22 22:00:00 8.5 7 Este 12 Este 0 1007.3 0.4 100
2018-01-22 21:00:00 8.7 8 Este 13 Este 0 1007.3 0.7 100
2018-01-22 20:00:00 9 6 Este 10 Este 0 1007.2 0.4 99
2018-01-22 19:00:00 9.3 4 Sudeste 9 Este 0 1006.9 0.1 97
2018-01-22 18:00:00 9.7 5 Este 9 Sudeste 0 1006.6 -0.5 94
2018-01-22 17:00:00 9.9 3 Oeste 9 Sudoeste 0 1006.8 -0.8 93
2018-01-22 16:00:00 9.8 5 Oeste 9 Oeste 0 1006.8 -1.6 96
2018-01-22 15:00:00 9.2 5 Noroeste 10 Noroeste 0 1007.1 -1.8 98
2018-01-22 14:00:00 8.7 5 Oeste 10 Noroeste 0 1007.6 -1.3 100
2018-01-22 13:00:00 8.3 3 Noroeste 11 Noroeste 0 1008.4 -0.2 100
2018-01-22 12:00:00 8.4 5 Noroeste 12 Noroeste 0 1008.9 0.6 100
2018-01-22 11:00:00 8.2 3 Sudoeste 6 Noroeste 0 1008.9 0.7 100
2018-01-22 10:00:00 8 3 Sur 7 Noroeste 0.2 1008.6 0.5 100
2018-01-22 09:00:00 7.6 0 Calma 4 Sudoeste 0 1008.3 0.4 100
2018-01-22 08:00:00 7.3 0 Calma 3 Este 0 1008.2 0.3 100
2018-01-22 07:00:00 7.1 0 Calma 7 Norte 0 1008.1 -0.1 100
2018-01-22 06:00:00 7.4 6 Noroeste 12 Noroeste 0 1007.9 -0.3 100
2018-01-22 05:00:00 6.9 5 Noroeste 8 Oeste 0 1007.9 -0.5 100
2018-01-22 04:00:00 5.9 4 Oeste 8 Oeste 0 1008.2 -0.4 100
2018-01-22 03:00:00 5.4 3 Noroeste 5 Sur 0 1008.2 -0.4 98
2018-01-22 02:00:00 7.7 3 Sudoeste 8 Sudoeste 0 1008.4 -0.1 99
2018-01-22 01:00:00 8.5 3 Sudoeste 10 Sudoeste 0 1008.6 0 97
2018-01-22 00:00:00 9.3 3 Sudoeste 10 Oeste 0 1008.6 0.2 95
2018-01-21 23:00:00 10.2 6 Oeste 11 Oeste 0 1008.5 0.4 94
2018-01-21 22:00:00 10.9 5 Oeste 13 Oeste 0 1008.6 0.7 92
2018-01-21 21:00:00 11.7 9 Oeste 14 Oeste 0 1008.4 0.5 89
2018-01-21 20:00:00 12.3 5 Sudoeste 12 Sudoeste 0 1008.1 0.2 88
2018-01-21 19:00:00 14 4 Sudoeste 12 Oeste 0 1007.9 0 79
2018-01-21 18:00:00 15.6 5 Oeste 13 Oeste 0 1007.9 -0.6 73
2018-01-21 17:00:00 16.5 6 Oeste 14 Oeste 0 1007.9 -1.3 71
2018-01-21 16:00:00 16.3 8 Oeste 18 Oeste 0 1007.9 -2.1 71
2018-01-21 15:00:00 15.2 6 Oeste 16 Oeste 0 1008.5 -2.2 75
2018-01-21 14:00:00 13.4 6 Oeste 13 Oeste 0 1009.2 -1.4 81
2018-01-21 13:00:00 10.9 9 Oeste 17 Oeste 0 1010 -0.1 91
2018-01-21 12:00:00 9 12 Oeste 18 Noroeste 0 1010.7 1.3 100
2018-01-21 11:00:00 7.7 6 Oeste 18 Oeste 0 1010.6 1.8 100
2018-01-21 10:00:00 7.1 9 Oeste 19 Noroeste 0.2 1010.1 1.7 100
2018-01-21 09:00:00 7 8 Oeste 15 Oeste 0 1009.4 0.9 100
2018-01-21 08:00:00 6.9 7 Oeste 17 Oeste 0 1008.8 0.1 100
2018-01-21 07:00:00 6.7 9 Oeste 18 Noroeste 0 1008.4 -0.6 100
2018-01-21 06:00:00 5.9 8 Oeste 13 Noroeste 0 1008.5 -0.4 98
2018-01-21 05:00:00 6.2 7 Sudoeste 12 Sudoeste 0 1008.7 -0.2 97
2018-01-21 04:00:00 6.6 4 Sudoeste 9 Oeste 0 1009 -0.1 96
2018-01-21 03:00:00 7.2 5 Sudoeste 17 Oeste 0 1008.9 0.2 95
2018-01-21 02:00:00 7.4 5 Sudoeste 14 Oeste 0 1008.9 0.5 94
2018-01-21 01:00:00 7.7 8 Oeste 15 Oeste 0 1009.1 0.8 94
2018-01-21 00:00:00 8.1 9 Oeste 16 Oeste 0 1008.7 0.7 94
2018-01-20 23:00:00 9.1 8 Oeste 17 Oeste 0 1008.4 0.7 89
2018-01-20 22:00:00 10 8 Oeste 17 Oeste 0 1008.3 1.3 85
2018-01-20 21:00:00 10.7 14 Oeste 22 Oeste 0 1008 1.3 84
2018-01-20 20:00:00 11.2 10 Oeste 18 Oeste 0 1007.7 1.5 83
2018-01-20 19:00:00 12.1 9 Oeste 18 Oeste 0 1007 0.8 77
2018-01-20 18:00:00 13.5 11 Oeste 21 Oeste 0 1006.7 0.4 65
2018-01-20 17:00:00 16.4 13 Oeste 23 Oeste 0 1006.2 -0.5 47
2018-01-20 16:00:00 16.2 4 Noroeste 10 Oeste 0 1006.2 -1.5 63
2018-01-20 15:00:00 15.6 9 Oeste 15 Oeste 0 1006.3 -1.9 57
2018-01-20 14:00:00 15.1 3 Sudoeste 6 Norte 0 1006.7 -1.5 65
2018-01-20 13:00:00 13 4 Oeste 7 Oeste 0 1007.7 -0.2 72
2018-01-20 12:00:00 10.1 3 Oeste 9 Oeste 0 1008.2 1.1 83
2018-01-20 11:00:00 7.4 4 Oeste 5 Oeste 0 1008.2 1.7 92
2018-01-20 10:00:00 3.9 2 Oeste 4 Oeste 0 1007.9 2.3 100
2018-01-20 09:00:00 3.2 2 Oeste 5 Sudoeste 0 1007.1 1.9 99
2018-01-20 08:00:00 3.8 3 Oeste 5 Noroeste 0 1006.5 1.4 100
2018-01-20 07:00:00 4.3 3 Oeste 6 Oeste 0 1005.6 0.6 97
2018-01-20 06:00:00 5.2 3 Sudoeste 8 Oeste 0 1005.2 0.5 98
2018-01-20 05:00:00 5.8 3 Sudoeste 10 Oeste 0 1005.1 0.3 95
2018-01-20 04:00:00 5.6 3 Sudoeste 8 Oeste 0 1005 0.4 94
2018-01-20 03:00:00 5.9 4 Oeste 6 Oeste 0 1004.7 0.4 93
2018-01-20 02:00:00 7.1 5 Oeste 10 Sudoeste 0 1004.8 0.7 90
2018-01-20 01:00:00 8.4 3 Oeste 8 Sudoeste 0 1004.6 1 85
2018-01-20 00:00:00 9.8 5 Sudoeste 9 Oeste 0 1004.3 1.3 80
2018-01-19 23:00:00 10.5 5 Sudoeste 10 Sudoeste 0 1004.1 1.8 77
2018-01-19 22:00:00 11.2 6 Oeste 14 Oeste 0 1003.6 2.2 69
2018-01-19 21:00:00 11.9 7 Oeste 12 Oeste 0 1003 2.2 62
2018-01-19 20:00:00 13.3 6 Sudoeste 9 Oeste 0 1002.3 2 62
2018-01-19 19:00:00 15 3 Oeste 8 Oeste 0 1001.4 1.7 58
2018-01-19 18:00:00 16.9 2 Noroeste 16 Norte 0 1000.8 0.7 54
2018-01-19 17:00:00 18.5 13 Norte 19 Norte 0 1000.3 0 44
2018-01-19 16:00:00 18.4 3 Norte 9 Este 0 999.7 -1.2 51
2018-01-19 15:00:00 16.4 5 Norte 13 Noroeste 0 1000.1 -1.1 58
2018-01-19 14:00:00 15.1 5 Este 15 Sudeste 0 1000.3 -0.5 60
2018-01-19 13:00:00 13.1 4 Sudeste 9 Este 0 1000.9 1.2 68
2018-01-19 12:00:00 10.3 4 Este 8 Este 0 1001.2 1.9 75
2018-01-19 11:00:00 6.8 5 Noroeste 11 Noroeste 0 1000.8 2 89
2018-01-19 10:00:00 3.2 3 Noroeste 6 Noroeste 0 999.7 1.5 99
2018-01-19 09:00:00 2.8 4 Sur 6 Sudeste 0 999.3 1.3 99
2018-01-19 08:00:00 2.9 2 Nordeste 4 Oeste 0 998.8 0.8 97
2018-01-19 07:00:00 3.2 4 Oeste 10 Oeste 0 998.2 0.2 97
2018-01-19 06:00:00 4.2 4 Oeste 6 Sudoeste 0 998 -0.1 92
2018-01-19 05:00:00 4.6 0 Calma 8 Oeste 0 998 -0.2 90
2018-01-19 04:00:00 4.6 3 Oeste 9 Oeste 0 998 -0.5 87
2018-01-19 03:00:00 7.4 3 Sudoeste 10 Oeste 0 998.1 -0.6 80
2018-01-19 02:00:00 7.4 5 Oeste 9 Oeste 0 998.2 -0.7 81
2018-01-19 01:00:00 7.3 7 Oeste 12 Oeste 0 998.5 -0.3 83
2018-01-19 00:00:00 7.3 7 Oeste 12 Oeste 0 998.7 -0.5 83
2018-01-18 23:00:00 7.6 8 Oeste 12 Oeste 0 998.9 0.2 82
2018-01-18 22:00:00 9 5 Oeste 8 Oeste 0 998.8 0.4 75
2018-01-18 21:00:00 10.5 4 Oeste 7 Oeste 0 999.2 0.7 71
2018-01-18 20:00:00 11.8 3 Noroeste 11 Noroeste 0 998.7 0.2 68
2018-01-18 19:00:00 12.3 9 Noroeste 14 Norte 0 998.4 -0.5 67
2018-01-18 18:00:00 15.2 8 Norte 16 Norte 0 998.5 -1 57
2018-01-18 17:00:00 16.9 14 Noroeste 22 Norte 0 998.5 -1.9 52
2018-01-18 16:00:00 17.4 10 Nordeste 19 Nordeste 0 998.9 -2.7 40
2018-01-18 15:00:00 17 8 Nordeste 18 Este 0 999.5 -3.1 45
2018-01-18 14:00:00 15.2 9 Nordeste 17 Nordeste 0 1000.4 -2.1 56
2018-01-18 13:00:00 13 9 Nordeste 17 Este 0 1001.6 -0.5 69
2018-01-18 12:00:00 10.1 7 Nordeste 12 Nordeste 0 1002.6 0.9 84
2018-01-18 11:00:00 7.4 6 Nordeste 10 Nordeste 0 1002.5 1.1 96
2018-01-18 10:00:00 3.9 3 Este 6 Sudeste 0 1002.1 1.1 100
2018-01-18 09:00:00 1.9 2 Noroeste 5 Nordeste 0 1001.7 0.7 100
2018-01-18 08:00:00 2 0 Calma 4 Sudoeste 0 1001.4 0.1 100
2018-01-18 07:00:00 2.2 3 Este 7 Este 0 1001 -0.7 100
2018-01-18 06:00:00 3.2 3 Sudeste 5 Sudeste 0 1001 -1.1 100
2018-01-18 05:00:00 3.8 2 Este 5 Este 0 1001.3 -1 100
2018-01-18 04:00:00 4.2 4 Sudeste 6 Sur 0 1001.7 -1.1 100
2018-01-18 03:00:00 3.8 2 Oeste 8 Sur 0 1002.1 -0.7 100
2018-01-18 02:00:00 5 4 Oeste 7 Sudoeste 0 1002.3 -0.5 100
2018-01-18 01:00:00 6 4 Este 13 Este 0 1002.8 0 100
2018-01-18 00:00:00 6.2 0 Calma 5 Nordeste 0 1002.8 0 99
2018-01-17 23:00:00 7.1 3 Este 7 Nordeste 0 1002.8 0.2 99
2018-01-17 22:00:00 7.7 4 Nordeste 5 Este 0 1002.8 0.2 97
2018-01-17 21:00:00 8.7 3 Este 10 Este 0 1002.8 0.5 95
2018-01-17 20:00:00 10 6 Sudeste 12 Este 0 1002.6 0.2 91
2018-01-17 19:00:00 11.5 9 Este 12 Este 0 1002.6 -0.1 87
2018-01-17 18:00:00 13.7 10 Este 14 Este 0 1002.3 -0.7 77
2018-01-17 17:00:00 15.4 9 Este 18 Este 0 1002.4 -1.4 70
2018-01-17 16:00:00 15.8 10 Este 16 Este 0 1002.7 -1.8 69
2018-01-17 15:00:00 15.6 8 Este 15 Este 0 1003 -1.9 70
2018-01-17 14:00:00 15.2 10 Este 17 Este 0 1003.8 -1.1 71
2018-01-17 13:00:00 14.4 8 Este 13 Este 0 1004.5 -0.2 76
2018-01-17 12:00:00 12.5 3 Nordeste 12 Noroeste 0 1004.9 0.4 83
2018-01-17 11:00:00 10.4 9 Oeste 13 Noroeste 0 1004.9 0.4 95
2018-01-17 10:00:00 8.2 4 Sur 10 Oeste 0 1004.7 0 100
2018-01-17 09:00:00 7.5 6 Oeste 10 Oeste 0 1004.5 -0.2 100
2018-01-17 08:00:00 7.7 3 Oeste 6 Sudoeste 0 1004.5 -0.3 100
2018-01-17 07:00:00 6.9 3 Sudoeste 9 Oeste 0 1004.7 -0.3 100
2018-01-17 06:00:00 7.3 5 Oeste 9 Oeste 0 1004.7 -0.9 100
2018-01-17 05:00:00 6.9 3 Noroeste 4 Noroeste 0 1004.8 -1.6 100
2018-01-17 04:00:00 8.9 0 Calma 5 Sudoeste 0 1005 -1.8 100
2018-01-17 03:00:00 9.6 2 Sudoeste 5 Sur 0 1005.6 -1 100
2018-01-17 02:00:00 9.6 3 Nordeste 13 Norte 0 1006.4 -0.4 99
2018-01-17 01:00:00 10.5 9 Norte 21 Noroeste 0 1006.8 -0.4 98
2018-01-17 00:00:00 11.5 4 Oeste 14 Noroeste 0 1006.6 -0.3 95
2018-01-16 23:00:00 12 12 Noroeste 18 Noroeste 0 1006.8 0 95
2018-01-16 22:00:00 12.2 12 Noroeste 18 Noroeste 0 1007.2 0.4 94
2018-01-16 21:00:00 12.3 8 Oeste 14 Oeste 0 1006.9 0.2 94
2018-01-16 20:00:00 12.3 8 Oeste 12 Oeste 0 1006.8 0.2 93
2018-01-16 19:00:00 12.4 8 Oeste 23 Oeste 0 1006.8 0.1 91
2018-01-16 18:00:00 12.7 12 Oeste 21 Oeste 0 1006.7 -0.5 90
2018-01-16 17:00:00 13.4 10 Oeste 23 Oeste 0 1006.6 -1.6 87
2018-01-16 16:00:00 13.6 11 Oeste 22 Noroeste 0 1006.7 -2.4 85
2018-01-16 15:00:00 13.4 5 Oeste 17 Oeste 0 1007.2 -2.5 84
2018-01-16 14:00:00 12.5 9 Oeste 19 Oeste 0 1008.2 -1.6 86
2018-01-16 13:00:00 10.4 5 Noroeste 12 Noroeste 0 1009.1 -0.2 89
2018-01-16 12:00:00 8.5 6 Oeste 12 Noroeste 0 1009.7 0.5 93
2018-01-16 11:00:00 6.5 3 Noroeste 8 Noroeste 0 1009.8 1.4 93
2018-01-16 10:00:00 4.7 3 Oeste 8 Sudoeste 0 1009.3 1.4 98
2018-01-16 09:00:00 3 2 Sur 7 Sur 0 1009.2 1.4 97
2018-01-16 08:00:00 3.1 4 Sur 6 Sur 0 1008.4 0.6 99
2018-01-16 07:00:00 3 2 Este 5 Oeste 0 1007.9 -0.5 98
2018-01-16 06:00:00 3.5 0 Calma 8 Noroeste 0 1007.8 -0.7 97
2018-01-16 05:00:00 4.2 4 Sudeste 8 Sudeste 0 1007.8 -0.5 98
2018-01-16 04:00:00 3.7 0 Calma 3 Este 0 1008.4 -0.6 96
2018-01-16 03:00:00 3.3 3 Nordeste 8 Este 0 1008.5 -0.3 95
2018-01-16 02:00:00 3.7 2 Sudeste 6 Noroeste 0 1008.3 -0.2 92
2018-01-16 01:00:00 4.4 4 Sudoeste 6 Oeste 0 1009 1 87
2018-01-16 00:00:00 4.3 0 Calma 8 Oeste 0 1008.8 1 89
2018-01-15 23:00:00 4.4 4 Oeste 6 Oeste 0 1008.5 0.8 92
2018-01-15 22:00:00 5 2 Este 6 Sudoeste 0 1008 1.1 89
2018-01-15 21:00:00 6.2 3 Sur 7 Sur 0 1007.8 1.6 82
2018-01-15 20:00:00 8 3 Sudoeste 8 Sur 0 1007.7 1.6 74
2018-01-15 19:00:00 9.3 5 Sur 6 Sur 0 1006.9 1.2 71
2018-01-15 18:00:00 11.6 0 Calma 5 Sur 0 1006.2 0.2 57
2018-01-15 17:00:00 13.2 3 Sudeste 7 Nordeste 0 1006.1 -0.1 51
2018-01-15 16:00:00 12.6 3 Este 10 Nordeste 0 1005.7 -0.8 57
2018-01-15 15:00:00 11.9 4 Nordeste 9 Nordeste 0 1006 -1 60
2018-01-15 14:00:00 10.7 6 Este 10 Este 0 1006.2 -0.5 63
2018-01-15 13:00:00 9.2 4 Sudeste 9 Sudeste 0 1006.5 0.4 71
2018-01-15 12:00:00 6.8 4 Nordeste 8 Norte 0 1007 2.2 80
2018-01-15 11:00:00 4.5 3 Nordeste 4 Nordeste 0 1006.7 2.9 87
2018-01-15 10:00:00 1.1 0 Calma 10 Noroeste 0 1006.1 2.6 100
2018-01-15 09:00:00 -0.6 6 Noroeste 11 Noroeste 0 1004.8 1.8 98
2018-01-15 08:00:00 0.9 5 Sur 7 Sur 0 1003.8 1 100
2018-01-15 07:00:00 0.2 0 Calma 3 Sudeste 0 1003.5 0.9 98
2018-01-15 06:00:00 1.4 3 Sur 4 Sur 0 1003 1.3 97
2018-01-15 05:00:00 1.6 2 Sudoeste 7 Oeste 0 1002.8 1.4 97
2018-01-15 04:00:00 1.9 5 Oeste 10 Oeste 0 1002.6 1 97
2018-01-15 03:00:00 2.7 3 Oeste 9 Noroeste 0 1001.7 0.3 96
2018-01-15 02:00:00 3.2 4 Oeste 8 Noroeste 0 1001.4 0.3 96
2018-01-15 01:00:00 3.4 7 Oeste 11 Oeste 0 1001.6 1.1 93
2018-01-15 00:00:00 4.1 4 Sudoeste 9 Oeste 0 1001.4 1.9 94
2018-01-14 23:00:00 4.8 4 Sudoeste 6 Sudoeste 0 1001.1 2.2 92
2018-01-14 22:00:00 4.9 4 Oeste 6 Noroeste 0 1000.5 1.9 91
2018-01-14 21:00:00 5.9 0 Calma 3 Sudoeste 0 999.5 1.5 86
2018-01-14 20:00:00 6.8 2 Sur 7 Nordeste 0 998.9 1.5 81
2018-01-14 19:00:00 7.7 5 Norte 13 Norte 0 998.6 1.6 79
2018-01-14 18:00:00 9.2 10 Norte 18 Norte 0 998 0.9 73
2018-01-14 17:00:00 11.1 13 Norte 19 Noroeste 0 997.4 -0.1 60
2018-01-14 16:00:00 12.2 13 Noroeste 27 Noroeste 0 997 -1.5 60
2018-01-14 15:00:00 11.2 10 Norte 21 Noroeste 0 997.1 -2.1 68
2018-01-14 14:00:00 10.5 10 Noroeste 20 Oeste 0 997.5 -1.3 69
2018-01-14 13:00:00 9.9 12 Oeste 21 Noroeste 0 998.5 0.1 78
2018-01-14 12:00:00 8.6 14 Oeste 22 Oeste 0 999.2 1.1 84
2018-01-14 11:00:00 7.6 10 Oeste 15 Noroeste 0 998.8 1.1 90
2018-01-14 10:00:00 5 3 Oeste 6 Noroeste 0 998.4 0.9 100
2018-01-14 09:00:00 4.7 4 Noroeste 12 Oeste 0 998.1 0.5 99
2018-01-14 08:00:00 5.3 4 Sur 7 Sur 0 997.7 -0.5 100
2018-01-14 07:00:00 5 3 Nordeste 5 Nordeste 0 997.5 -0.8 100
2018-01-14 06:00:00 5.4 3 Sur 6 Noroeste 0 997.6 -0.8 99
2018-01-14 05:00:00 5.8 4 Oeste 8 Oeste 0 998.2 -0.5 97
2018-01-14 04:00:00 5.9 4 Oeste 12 Sur 0 998.3 -1.2 98
2018-01-14 03:00:00 6.2 5 Sudoeste 12 Sudoeste 0 998.4 -1.1 98
2018-01-14 02:00:00 5.9 6 Sudoeste 16 Oeste 0 998.7 -0.7 98
2018-01-14 01:00:00 5.1 5 Noroeste 15 Noroeste 0 999.5 0.4 96
2018-01-14 00:00:00 6.2 5 Oeste 9 Sudoeste 0 999.5 0.5 93
2018-01-13 23:00:00 6.3 4 Sudoeste 8 Sudoeste 0 999.4 1.1 94
2018-01-13 22:00:00 6.5 3 Sudoeste 8 Sudoeste 0 999.1 1.1 94
2018-01-13 21:00:00 6.6 3 Sudoeste 10 Sudoeste 0 999 1 93
2018-01-13 20:00:00 7.3 4 Sudoeste 8 Sudoeste 0 998.3 1.2 92
2018-01-13 19:00:00 8.3 4 Sudoeste 19 Noroeste 0 998 1.3 88
2018-01-13 18:00:00 8.4 17 Noroeste 50 Noroeste 0.2 998 1.7 89
2018-01-13 17:00:00 11.4 15 Oeste 34 Noroeste 0.8 997.1 1 81
2018-01-13 16:00:00 12.3 21 Oeste 39 Noroeste 0 996.7 0.2 73
2018-01-13 15:00:00 12.4 28 Oeste 41 Oeste 0 996.3 -0.5 72
2018-01-13 14:00:00 12.1 14 Oeste 34 Oeste 0 996.1 -0.2 84
2018-01-13 13:00:00 9.4 8 Sudoeste 21 Sur 0 996.5 0.9 96
2018-01-13 12:00:00 7.1 4 Sudeste 23 Oeste 1.2 996.8 -0.1 100
2018-01-13 11:00:00 6.8 5 Sudeste 26 Este 0.8 996.3 -0.8 100
2018-01-13 10:00:00 5.9 14 Este 22 Este 1.8 995.6 -1.3 100
2018-01-13 09:00:00 5.6 8 Este 14 Este 1.2 996.9 -0.7 100
2018-01-13 08:00:00 5.4 5 Sudeste 9 Sudeste 0.2 997.1 -0.8 100
2018-01-13 07:00:00 5.1 6 Este 12 Este 0 996.9 -1.9 100
2018-01-13 06:00:00 5 6 Nordeste 10 Este 0 997.6 -1.2 99
2018-01-13 05:00:00 5.1 4 Sudeste 12 Este 0 997.9 -1.8 100
2018-01-13 04:00:00 4.6 2 Este 6 Este 0 998.8 -1.6 100
2018-01-13 03:00:00 4.2 3 Este 4 Oeste 0 998.8 -1.9 98
2018-01-13 02:00:00 4.4 0 Calma 6 Este 0 999.7 -1.6 97
2018-01-13 01:00:00 5 6 Este 8 Este 0 1000.4 -1.1 97
2018-01-13 00:00:00 5.4 5 Nordeste 8 Este 0 1000.7 -1.2 95
2018-01-12 23:00:00 6.1 3 Nordeste 6 Nordeste 0 1001.3 -0.5 93
2018-01-12 22:00:00 6.8 3 Sudeste 8 Este 0 1001.5 -0.8 88
2018-01-12 21:00:00 7.3 3 Sur 7 Este 0 1001.9 -0.5 84
2018-01-12 20:00:00 7.2 4 Sudeste 6 Este 0 1001.8 -0.6 84
2018-01-12 19:00:00 8.5 2 Oeste 3 Oeste 0 1002.3 -0.5 78
2018-01-12 18:00:00 10.2 0 Calma 5 Nordeste 0 1002.4 -0.8 70
2018-01-12 17:00:00 10.6 4 Este 10 Nordeste 0 1002.4 -1.5 67
2018-01-12 16:00:00 10.6 3 Nordeste 8 Norte 0 1002.8 -2.2 68
2018-01-12 15:00:00 10.7 3 Este 9 Nordeste 0 1003.2 -2 69
2018-01-12 14:00:00 9.6 5 Nordeste 11 Nordeste 0 1003.9 -1.6 76
2018-01-12 13:00:00 8.4 4 Norte 9 Este 0 1005 -0.6 79
2018-01-12 12:00:00 7.5 8 Este 13 Este 0 1005.2 0.2 84
2018-01-12 11:00:00 3.6 10 Este 14 Este 0 1005.5 0.9 100
2018-01-12 10:00:00 0.8 0 Calma 6 Nordeste 0 1005.6 0.9 100
2018-01-12 09:00:00 -0.3 0 Calma 5 Sudoeste 0 1005 0.1 100
2018-01-12 08:00:00 0.6 3 Sur 5 Sudeste 0 1004.6 -0.1 100
2018-01-12 07:00:00 0.7 3 Oeste 6 Oeste 0 1004.7 -0.7 99
2018-01-12 06:00:00 1.1 3 Oeste 5 Noroeste 0 1004.9 -0.5 97
2018-01-12 05:00:00 2.7 3 Sudeste 8 Oeste 0 1004.7 -0.8 94
2018-01-12 04:00:00 3.6 0 Calma 8 Sudoeste 0 1005.4 -1 90
2018-01-12 03:00:00 4.5 3 Sudoeste 8 Oeste 0 1005.4 -0.9 90
2018-01-12 02:00:00 4.9 4 Sudoeste 13 Oeste 0 1005.5 -0.4 89
2018-01-12 01:00:00 5.6 8 Oeste 15 Oeste 0 1006.4 0.5 87
2018-01-12 00:00:00 5.8 4 Sudoeste 12 Sudoeste 0 1006.3 0.8 87
2018-01-11 23:00:00 6.5 4 Sudoeste 13 Oeste 0 1005.9 0.9 84
2018-01-11 22:00:00 7 7 Oeste 15 Oeste 0 1005.9 1.1 81
2018-01-11 21:00:00 8.3 6 Oeste 18 Oeste 0 1005.5 1 76
2018-01-11 20:00:00 8.5 17 Noroeste 19 Noroeste 0 1005 0.8 77
2018-01-11 19:00:00 10.2 6 Oeste 20 Oeste 0 1004.8 0.5 69
2018-01-11 18:00:00 12.1 15 Oeste 37 Noroeste 0 1004.5 0.3 59
2018-01-11 17:00:00 13.6 22 Oeste 40 Noroeste 0 1004.2 -0.6 56
2018-01-11 16:00:00 14.1 21 Oeste 37 Oeste 0 1004.3 -1 60
2018-01-11 15:00:00 13.8 17 Oeste 34 Oeste 0 1004.2 -1.4 68
2018-01-11 14:00:00 12.2 21 Oeste 38 Oeste 0 1004.8 -0.7 72
2018-01-11 13:00:00 12.1 21 Noroeste 35 Oeste 0 1005.3 0.2 80
2018-01-11 12:00:00 11.5 15 Oeste 30 Oeste 0 1005.6 1 84
2018-01-11 11:00:00 10.5 12 Sudoeste 30 Oeste 0 1005.5 1.6 86
2018-01-11 10:00:00 8.6 17 Oeste 25 Oeste 0 1005.1 1.1 91
2018-01-11 09:00:00 7.6 10 Sudoeste 23 Sudoeste 0 1004.6 0.6 92
2018-01-11 08:00:00 7.3 8 Sudoeste 17 Oeste 0 1003.9 -0.5 92
2018-01-11 07:00:00 7.1 6 Sudoeste 16 Oeste 0 1004 -0.5 92
2018-01-11 06:00:00 6.6 7 Sudoeste 13 Oeste 0 1004 -0.3 94
2018-01-11 05:00:00 6.1 7 Oeste 14 Sudoeste 0 1004.4 -0.1 94
2018-01-11 04:00:00 6.1 9 Sudoeste 17 Oeste 0 1004.5 -0.3 94
2018-01-11 03:00:00 6.4 6 Sudoeste 18 Oeste 0 1004.3 -0.1 94
2018-01-11 02:00:00 6.8 6 Sudoeste 20 Oeste 0 1004.5 0.6 93
2018-01-11 01:00:00 7 7 Oeste 18 Oeste 0 1004.8 1.3 93
2018-01-11 00:00:00 7.5 10 Oeste 17 Oeste 0 1004.4 1.2 92
2018-01-10 23:00:00 8.6 11 Oeste 21 Oeste 0 1003.9 1.6 87
2018-01-10 22:00:00 9.3 12 Oeste 22 Oeste 0 1003.5 2.5 83
2018-01-10 21:00:00 9.4 8 Oeste 27 Oeste 0 1003.2 3 82
2018-01-10 20:00:00 10.1 14 Oeste 28 Oeste 0 1002.3 2.8 77
2018-01-10 19:00:00 11.1 16 Oeste 35 Noroeste 0 1001 2.3 77
2018-01-10 18:00:00 12.2 17 Oeste 34 Noroeste 0 1000.2 1.7 77
2018-01-10 17:00:00 13 18 Oeste 42 Oeste 1 999.5 0.4 86
2018-01-10 16:00:00 14.7 20 Oeste 48 Sudoeste 0 998.7 -1.3 73
2018-01-10 15:00:00 15.8 17 Oeste 37 Oeste 0 998.5 -2.3 73
2018-01-10 14:00:00 14.2 10 Sudoeste 38 Sudoeste 0 999.1 -1.8 84
2018-01-10 13:00:00 12.9 8 Sudoeste 23 Oeste 0 1000 -0.3 87
2018-01-10 12:00:00 12.3 6 Sudoeste 18 Sur 0 1000.8 1.2 92
2018-01-10 11:00:00 10 4 Noroeste 13 Sur 0 1000.9 1.7 100
2018-01-10 10:00:00 9 7 Sur 15 Sur 0 1000.3 2 100
2018-01-10 09:00:00 8.8 3 Oeste 8 Sudoeste 0 999.6 1.5 100
2018-01-10 08:00:00 8.7 4 Sudoeste 9 Sudoeste 0 999.2 1.3 100
2018-01-10 07:00:00 8.5 3 Sudoeste 9 Oeste 0 998.3 1.2 100
2018-01-10 06:00:00 8.3 5 Oeste 11 Oeste 0 998.1 1.4 100
2018-01-10 05:00:00 8.2 7 Oeste 12 Oeste 0 997.9 1.3 100
2018-01-10 04:00:00 8.5 4 Oeste 8 Noroeste 0 997.1 1.3 100
2018-01-10 03:00:00 8.6 6 Noroeste 18 Noroeste 0 996.7 1.3 100
2018-01-10 02:00:00 9.1 8 Oeste 19 Noroeste 0 996.6 1.6 100
2018-01-10 01:00:00 9.2 11 Noroeste 16 Oeste 0 995.8 1.1 100
2018-01-10 00:00:00 9.3 2 Oeste 5 Noroeste 0.2 995.4 1.1 100
2018-01-09 23:00:00 9.2 3 Este 8 Este 0.2 995 0.9 100
2018-01-09 22:00:00 9.2 5 Nordeste 10 Este 0 994.7 1.2 100
2018-01-09 21:00:00 9.2 4 Este 12 Este 0 994.3 1.1 100
2018-01-09 20:00:00 8.9 6 Este 14 Este 1.2 994.1 0.4 100
2018-01-09 19:00:00 9 10 Nordeste 19 Este 1.8 993.5 0.1 100
2018-01-09 18:00:00 9.1 12 Este 17 Este 1.8 993.2 -0.8 100
2018-01-09 17:00:00 9.4 10 Este 17 Este 0.8 993.7 -1.4 98
2018-01-09 16:00:00 9.9 10 Este 17 Este 1 993.4 -2.4 95
2018-01-09 15:00:00 10 6 Sudeste 13 Sudeste 0 994 -3.5 92
2018-01-09 14:00:00 8.7 6 Este 20 Sudeste 0.2 995.1 -2.2 97
2018-01-09 13:00:00 6.8 8 Sudeste 16 Sur 0.8 995.8 -0.9 96
2018-01-09 12:00:00 5.4 11 Este 15 Sudeste 0.6 997.5 1.6 98
2018-01-09 11:00:00 4.3 9 Este 15 Este 0 997.3 1 98
2018-01-09 10:00:00 3.4 8 Este 11 Este 0 996.7 0.9 99
2018-01-09 09:00:00 2.8 8 Este 11 Este 0 995.9 0 100
2018-01-09 08:00:00 2.1 5 Este 9 Este 0 996.3 0.5 100
2018-01-09 07:00:00 1.5 2 Nordeste 7 Este 0 995.8 0.3 100
2018-01-09 06:00:00 1.2 5 Este 8 Oeste 0 995.9 1.4 99
2018-01-09 05:00:00 1.5 4 Oeste 8 Sudeste 0 995.8 0.7 96
2018-01-09 04:00:00 2 4 Sudeste 10 Sudeste 0 995.5 0.6 98
2018-01-09 03:00:00 1.8 4 Sudeste 8 Este 0 994.5 -1 98
2018-01-09 02:00:00 2.1 0 Calma 6 Nordeste 0 995.1 0.1 96
2018-01-09 01:00:00 3.3 2 Sudeste 8 Oeste 0 994.9 0.3 92
2018-01-09 00:00:00 4.3 4 Sudoeste 8 Sudoeste 0 995.5 1.5 89
2018-01-08 23:00:00 4.9 3 Oeste 11 Noroeste 0 995 1.7 88
2018-01-08 22:00:00 5.8 4 Sudoeste 10 Sudoeste 0 994.6 1.9 84
2018-01-08 21:00:00 6.5 6 Sur 10 Sur 0 994 2.2 82
2018-01-08 20:00:00 7.4 5 Sudoeste 7 Sudoeste 0 993.3 2.1 77
2018-01-08 19:00:00 8.3 3 Sudoeste 5 Sudoeste 0 992.7 2.1 75
2018-01-08 18:00:00 10.1 0 Calma 8 Nordeste 0 991.8 1.7 64
2018-01-08 17:00:00 11 8 Nordeste 12 Este 0 991.2 1 60
2018-01-08 16:00:00 10.2 5 Nordeste 14 Nordeste 0 990.6 0 63
2018-01-08 15:00:00 10.3 8 Este 19 Este 0 990.1 -1 62
2018-01-08 14:00:00 10 12 Este 23 Este 0 990.2 -0.6 65
2018-01-08 13:00:00 9.6 11 Nordeste 18 Nordeste 0 990.6 0.9 75
2018-01-08 12:00:00 8.2 12 Nordeste 17 Nordeste 0 991.1 2.7 80
2018-01-08 11:00:00 6.7 10 Norte 22 Nordeste 0 990.8 3.2 90
2018-01-08 10:00:00 5.6 12 Norte 18 Norte 0 989.7 3 95
2018-01-08 09:00:00 4.6 13 Nordeste 19 Nordeste 0 988.4 2.1 96
2018-01-08 08:00:00 5 11 Nordeste 20 Este 0 987.6 2.2 97
2018-01-08 07:00:00 5.2 6 Nordeste 9 Nordeste 0.2 986.7 2.1 99
2018-01-08 06:00:00 4.9 3 Nordeste 7 Este 0 986.3 2.6 99
2018-01-08 05:00:00 4.8 5 Nordeste 11 Este 0 985.4 1.7 98
2018-01-08 04:00:00 4.7 9 Este 13 Este 0 984.6 0.6 98
2018-01-08 03:00:00 4.8 9 Este 14 Este 0 983.7 -0.3 97
2018-01-08 02:00:00 4.7 6 Sudeste 11 Este 1.6 983.7 0.1 97
2018-01-08 01:00:00 5.1 7 Este 10 Norte 2.6 984 0.6 96
2018-01-08 00:00:00 5.7 7 Norte 9 Noroeste 2 984 0.9 96
2018-01-07 23:00:00 5.9 5 Norte 11 Norte 1 983.6 1.2 96
2018-01-07 22:00:00 6.4 6 Norte 9 Norte 0.6 983.4 1.4 94
2018-01-07 21:00:00 6.9 3 Este 15 Nordeste 0.2 983.1 1.7 91
2018-01-07 20:00:00 7.3 7 Sur 11 Sur 0 982.4 1.5 87
2018-01-07 19:00:00 7.5 5 Sudeste 13 Este 0.2 982 1.4 83
2018-01-07 18:00:00 9 3 Este 14 Oeste 0 981.4 1.4 71
2018-01-07 17:00:00 9.4 9 Oeste 19 Oeste 0 980.9 0.6 66
2018-01-07 16:00:00 9.6 11 Oeste 24 Oeste 0 980.6 -0.1 60
2018-01-07 15:00:00 10.2 13 Oeste 22 Oeste 0 980 -1.1 60
2018-01-07 14:00:00 9.4 11 Oeste 22 Oeste 0 980.3 -0.6 65
2018-01-07 13:00:00 8.4 12 Oeste 23 Oeste 0 980.7 0.1 66
2018-01-07 12:00:00 7.4 12 Oeste 22 Oeste 0 981.1 1 67
2018-01-07 11:00:00 5.9 9 Oeste 23 Oeste 0 980.9 0.8 74
2018-01-07 10:00:00 5.1 13 Oeste 22 Oeste 0 980.6 0.9 81
2018-01-07 09:00:00 4.2 12 Oeste 19 Oeste 0 980.1 0.3 85
2018-01-07 08:00:00 4 12 Oeste 23 Oeste 0 980.1 -0.1 86
2018-01-07 07:00:00 4.1 13 Oeste 24 Oeste 0 979.7 -0.7 86
2018-01-07 06:00:00 4.2 15 Oeste 22 Oeste 0 979.8 -0.7 86
2018-01-07 05:00:00 4.5 10 Oeste 26 Oeste 0 980.2 -0.7 85
2018-01-07 04:00:00 4.8 13 Oeste 24 Oeste 0 980.4 -1.1 83
2018-01-07 03:00:00 4.8 11 Oeste 21 Oeste 0 980.5 -1.2 84
2018-01-07 02:00:00 4.2 9 Oeste 21 Oeste 0 980.9 -1 88
2018-01-07 01:00:00 3.8 11 Oeste 22 Oeste 0 981.5 -0.4 87
2018-01-07 00:00:00 3.9 9 Oeste 22 Oeste 0 981.7 -0.2 85
2018-01-06 23:00:00 4.7 13 Oeste 23 Oeste 0 981.9 0.2 78
2018-01-06 22:00:00 5.2 11 Oeste 20 Oeste 0 981.9 0.6 77
2018-01-06 21:00:00 5.8 10 Oeste 19 Oeste 0 981.9 0.9 74
2018-01-06 20:00:00 6.8 14 Oeste 24 Noroeste 0 981.7 1.1 64
2018-01-06 19:00:00 7.8 16 Noroeste 26 Noroeste 0 981.3 1 59
2018-01-06 18:00:00 9.5 15 Noroeste 38 Noroeste 0 981 0.8 49
2018-01-06 17:00:00 11.1 27 Noroeste 41 Noroeste 0 980.6 0.4 38
2018-01-06 16:00:00 11.8 23 Noroeste 41 Noroeste 0 980.3 -0.5 45
2018-01-06 15:00:00 11.3 26 Noroeste 37 Noroeste 0 980.2 -1.4 49
2018-01-06 14:00:00 10.9 26 Noroeste 39 Noroeste 0 980.2 -1.3 54
2018-01-06 13:00:00 10.1 27 Noroeste 36 Noroeste 0 980.8 0 57
2018-01-06 12:00:00 9.1 24 Noroeste 35 Noroeste 0 981.6 1.1 68
2018-01-06 11:00:00 6.9 13 Oeste 22 Oeste 0 981.5 1.2 84
2018-01-06 10:00:00 5.5 9 Oeste 17 Noroeste 0 980.8 0.5 92
2018-01-06 09:00:00 5.8 12 Oeste 24 Noroeste 0 980.5 0 86
2018-01-06 08:00:00 6.5 14 Oeste 23 Noroeste 0 980.3 -0.6 83
2018-01-06 07:00:00 6.5 16 Noroeste 22 Noroeste 0 980.3 -0.7 85
2018-01-06 06:00:00 7.1 13 Noroeste 22 Noroeste 0 980.5 -0.8 86
2018-01-06 05:00:00 7.3 12 Noroeste 17 Noroeste 0 980.9 -1.1 90
2018-01-06 04:00:00 7.7 13 Noroeste 19 Noroeste 0 981 -2.8 91
2018-01-06 03:00:00 8.1 10 Noroeste 17 Noroeste 0 981.3 -2.8 96
2018-01-06 02:00:00 8.4 11 Noroeste 17 Noroeste 0 982 -2.5 98
2018-01-06 01:00:00 8.9 9 Oeste 14 Oeste 0 983.8 -0.7 97
2018-01-06 00:00:00 9.3 7 Oeste 15 Oeste 0 984.1 -0.9 97
2018-01-05 23:00:00 9.2 5 Oeste 15 Oeste 0.4 984.5 -0.8 98
2018-01-05 22:00:00 9.3 14 Nordeste 25 Noroeste 1.6 984.5 -1.4 96
2018-01-05 21:00:00 9.8 17 Noroeste 30 Noroeste 1 985 -1.4 94
2018-01-05 20:00:00 10.6 8 Sudoeste 23 Sudoeste 0.4 985.3 -2.1 96
2018-01-05 19:00:00 11 7 Sur 17 Sur 0.4 985.9 -2.1 95
2018-01-05 18:00:00 11.1 9 Sur 20 Sudoeste 1.6 986.4 -2.2 95
2018-01-05 17:00:00 11.5 13 Sur 23 Sur 3 987.4 -2.4 96
2018-01-05 16:00:00 12.3 8 Sudoeste 21 Sudoeste 0.6 988 -3.5 95
2018-01-05 15:00:00 12.7 7 Sudoeste 26 Sudoeste 0.2 988.6 -3.9 95
2018-01-05 14:00:00 12.1 18 Sur 36 Sudoeste 2.6 989.8 -3.3 95
2018-01-05 13:00:00 12.3 19 Sudoeste 40 Sudoeste 0.6 991.5 -2.1 92
2018-01-05 12:00:00 14.1 22 Sur 45 Sur 0 992.5 -2.1 74
2018-01-05 11:00:00 13.3 23 Sur 51 Sudoeste 0 993.1 -2.5 80
2018-01-05 10:00:00 12.3 24 Sur 39 Sur 0 993.6 -2.8 86
2018-01-05 09:00:00 11.8 18 Sur 38 Sur 0 994.6 -3.1 88
2018-01-05 08:00:00 12 13 Sur 26 Sudoeste 0 995.6 -2.8 87
2018-01-05 07:00:00 12.2 9 Sudoeste 21 Sur 0 996.4 -2.8 86
2018-01-05 06:00:00 12.3 7 Sudoeste 18 Oeste 0 997.7 -2.3 89
2018-01-05 05:00:00 12.1 5 Sudoeste 12 Oeste 0 998.4 -2.7 90
2018-01-05 04:00:00 11.9 4 Oeste 15 Sur 0 999.2 -2.8 94
2018-01-05 03:00:00 12.1 3 Sudoeste 16 Sudoeste 0 1000 -2.8 91
2018-01-05 02:00:00 12.3 7 Sudoeste 19 Oeste 0 1001.1 -2.2 92
2018-01-05 01:00:00 13.4 5 Sudoeste 21 Sudoeste 0 1002 -1.6 80
2018-01-05 00:00:00 13.3 6 Sudoeste 18 Oeste 0 1002.8 -1.2 88
2018-01-04 23:00:00 13.4 7 Sudoeste 21 Sudoeste 0 1003.3 -0.9 90
2018-01-04 22:00:00 13.2 5 Sudoeste 12 Sudoeste 0 1003.6 -1 91
2018-01-04 21:00:00 13.5 4 Sudoeste 12 Sudoeste 0 1004 -0.9 89
2018-01-04 20:00:00 13.8 3 Sudoeste 11 Sudoeste 0 1004.2 -0.9 85
2018-01-04 19:00:00 14.7 3 Sudoeste 9 Sudoeste 0 1004.6 -0.7 85
2018-01-04 18:00:00 15.3 3 Sudoeste 15 Oeste 0 1004.9 -0.6 83
2018-01-04 17:00:00 16 9 Oeste 21 Oeste 0 1005.1 -1.6 76
2018-01-04 16:00:00 15.7 9 Oeste 19 Oeste 0 1005.3 -2.9 80
2018-01-04 15:00:00 16.5 7 Sudoeste 20 Oeste 0 1005.5 -3.5 81
2018-01-04 14:00:00 16.1 6 Sudoeste 19 Oeste 0 1006.7 -2.3 82
2018-01-04 13:00:00 15.8 6 Oeste 15 Noroeste 0 1008.2 -0.4 82
2018-01-04 12:00:00 15 9 Oeste 15 Oeste 0 1009 0.5 87
2018-01-04 11:00:00 14.1 8 Oeste 13 Oeste 0 1009 0.5 91
2018-01-04 10:00:00 12.5 3 Sudoeste 9 Oeste 0 1008.6 0 94
2018-01-04 09:00:00 11.8 4 Sudoeste 9 Sudoeste 0 1008.5 -0.1 94
2018-01-04 08:00:00 12.6 5 Oeste 11 Oeste 0 1008.5 -0.3 95
2018-01-04 07:00:00 12.5 6 Oeste 10 Oeste 0 1008.6 -0.7 94
2018-01-04 06:00:00 12.5 3 Sudoeste 8 Sudoeste 0 1008.6 -0.8 93
2018-01-04 05:00:00 13 5 Sudoeste 14 Sudoeste 0 1008.8 -1.2 95
2018-01-04 04:00:00 12.6 3 Sudoeste 10 Oeste 0 1009.3 -1.3 97
2018-01-04 03:00:00 13.2 5 Sudoeste 12 Oeste 0 1009.4 -1.4 95
2018-01-04 02:00:00 13.4 5 Sudoeste 12 Sudoeste 0 1010 -0.9 98
2018-01-04 01:00:00 13.3 4 Sudoeste 12 Oeste 0 1010.6 -0.4 97
2018-01-04 00:00:00 13.7 5 Sudoeste 12 Oeste 0 1010.8 0 96
2018-01-03 23:00:00 13.5 4 Sudoeste 12 Oeste 0 1010.9 0.2 96
2018-01-03 22:00:00 13.4 8 Oeste 12 Oeste 0 1011 0.4 94
2018-01-03 21:00:00 13.3 5 Oeste 12 Oeste 0 1010.8 0.1 93
2018-01-03 20:00:00 14.3 6 Sudoeste 11 Oeste 0 1010.7 -0.4 89
2018-01-03 19:00:00 14.7 6 Oeste 15 Noroeste 0 1010.6 -0.7 87
2018-01-03 18:00:00 15.5 8 Oeste 18 Oeste 0 1010.7 -1.1 83
2018-01-03 17:00:00 16.6 9 Oeste 18 Oeste 0 1011.1 -1.3 80
2018-01-03 16:00:00 16.9 10 Oeste 17 Oeste 0 1011.3 -1.8 78
2018-01-03 15:00:00 16.3 11 Oeste 18 Oeste 0 1011.8 -1.8 80
2018-01-03 14:00:00 15.8 5 Noroeste 12 Noroeste 0 1012.4 -1.1 83
2018-01-03 13:00:00 14.8 6 Oeste 12 Oeste 0 1013.1 -0.1 88
2018-01-03 12:00:00 13.5 6 Oeste 15 Noroeste 0 1013.6 0.9 95
2018-01-03 11:00:00 12.9 4 Oeste 12 Noroeste 0 1013.5 1.2 99
2018-01-03 10:00:00 12.5 13 Noroeste 18 Noroeste 0 1013.2 1.3 100
2018-01-03 09:00:00 12.1 7 Oeste 13 Noroeste 0 1012.7 0.5 99
2018-01-03 08:00:00 11.8 4 Oeste 17 Oeste 0 1012.3 -0.5 100
2018-01-03 07:00:00 11.2 6 Oeste 14 Sudoeste 0 1011.9 -0.8 98
2018-01-03 06:00:00 12.1 7 Oeste 15 Oeste 0 1012.2 -0.2 98
2018-01-03 05:00:00 12.1 5 Oeste 17 Oeste 0 1012.8 0.5 96
2018-01-03 04:00:00 11.6 7 Oeste 18 Oeste 0 1012.7 -0.1 96
2018-01-03 03:00:00 11.6 6 Oeste 15 Oeste 0 1012.4 -0.5 95
2018-01-03 02:00:00 11.3 5 Sudoeste 14 Oeste 0 1012.3 -0.8 94
2018-01-03 01:00:00 11.9 9 Sudoeste 14 Oeste 0 1012.8 -0.4 91
2018-01-03 00:00:00 12.6 3 Sudoeste 12 Oeste 0 1012.9 -0.2 88
2018-01-02 23:00:00 13.1 4 Sudoeste 12 Oeste 0 1013.1 0.1 86
2018-01-02 22:00:00 13.4 9 Oeste 12 Sudoeste 0 1013.2 0.5 84
2018-01-02 21:00:00 13.3 5 Sudoeste 11 Oeste 0 1013.1 0.4 84
2018-01-02 20:00:00 13.2 4 Sudoeste 9 Sudoeste 0 1013 0.3 84
2018-01-02 19:00:00 13.3 3 Sudoeste 9 Oeste 0 1012.7 0.1 83
2018-01-02 18:00:00 13.9 3 Sudoeste 20 Noroeste 0 1012.7 0.2 80
2018-01-02 17:00:00 14.5 10 Oeste 21 Noroeste 0 1012.7 -0.4 78
2018-01-02 16:00:00 14.5 11 Oeste 25 Noroeste 0 1012.6 -1.4 78
2018-01-02 15:00:00 14.5 17 Oeste 26 Noroeste 0 1012.5 -2 76
2018-01-02 14:00:00 14.5 10 Oeste 24 Noroeste 0 1013.1 -1.1 76
2018-01-02 13:00:00 13 11 Oeste 19 Oeste 0 1014 0.3 79
2018-01-02 12:00:00 11.5 7 Oeste 11 Noroeste 0 1014.5 1.3 87
2018-01-02 11:00:00 9.4 4 Oeste 10 Oeste 0 1014.2 1.6 95
2018-01-02 10:00:00 6.7 4 Oeste 7 Oeste 0 1013.7 1.1 100
2018-01-02 09:00:00 5.3 3 Oeste 10 Oeste 0 1013.2 0.8 99
2018-01-02 08:00:00 5.1 4 Oeste 11 Oeste 0 1012.6 -0.1 99
2018-01-02 07:00:00 5.4 3 Oeste 9 Oeste 0 1012.6 -0.2 99
2018-01-02 06:00:00 6.1 5 Oeste 8 Oeste 0 1012.4 -0.6 99
2018-01-02 05:00:00 6.4 4 Oeste 10 Sudoeste 0 1012.7 -0.5 95
2018-01-02 04:00:00 7.1 4 Sudoeste 9 Sur 0 1012.8 -0.9 97
2018-01-02 03:00:00 7.2 3 Sudoeste 8 Sudoeste 0 1013 -0.7 97
2018-01-02 02:00:00 7.9 4 Sudoeste 12 Oeste 0 1013.2 -0.5 95
2018-01-02 01:00:00 8.4 4 Sudoeste 10 Sudoeste 0 1013.7 0.2 93
2018-01-02 00:00:00 9 4 Sudoeste 9 Sur 0 1013.7 0.5 91
2018-01-01 23:00:00 9.6 5 Sur 10 Oeste 0 1013.7 0.7 88
2018-01-01 22:00:00 10.8 6 Oeste 13 Oeste 0 1013.5 0.8 83
2018-01-01 21:00:00 10.8 5 Sudoeste 14 Sudoeste 0 1013.2 0.9 83
2018-01-01 20:00:00 11.6 4 Sudoeste 12 Oeste 0 1013 0.5 81
2018-01-01 19:00:00 12.6 9 Oeste 15 Oeste 0 1012.7 0.2 74
2018-01-01 18:00:00 13.7 6 Oeste 20 Noroeste 0 1012.3 -0.1 70
2018-01-01 17:00:00 14.2 13 Oeste 27 Noroeste 0 1012.5 -0.6 69
2018-01-01 16:00:00 14.2 18 Oeste 25 Noroeste 0 1012.5 -1.4 67
2018-01-01 15:00:00 14.1 8 Oeste 15 Noroeste 0 1012.4 -2.6 69
2018-01-01 14:00:00 11.1 4 Sur 8 Este 0 1013.1 -1.7 87
2018-01-01 13:00:00 8 5 Sur 8 Sudeste 0 1013.9 -0.3 100
2018-01-01 12:00:00 5.8 3 Sudeste 9 Este 0 1015 1.4 100
2018-01-01 11:00:00 4.7 2 Nordeste 6 Norte 0 1014.8 2.3 100
2018-01-01 10:00:00 4 4 Noroeste 12 Oeste 0 1014.2 2.5 100
2018-01-01 09:00:00 3 5 Oeste 12 Noroeste 0 1013.6 1.7 100
2018-01-01 08:00:00 1.6 6 Noroeste 9 Noroeste 0 1012.5 0.8 100
2018-01-01 07:00:00 2 2 Sur 5 Este 0 1011.7 -0.1 100
2018-01-01 06:00:00 2.3 2 Norte 7 Nordeste 0 1011.9 0.5 100
2018-01-01 05:00:00 3.4 5 Nordeste 9 Nordeste 0 1011.7 -0.5 98
2018-01-01 04:00:00 5.1 3 Sudoeste 11 Sur 0 1011.8 -0.2 96
2018-01-01 03:00:00 5.9 3 Sudeste 6 Sudeste 0 1011.4 -0.8 97
2018-01-01 02:00:00 6.4 3 Sudeste 9 Oeste 0 1012.2 0.6 94
2018-01-01 01:00:00 8.1 5 Oeste 14 Oeste 0 1012 1.5 92
2018-01-01 00:00:00 8.7 6 Oeste 18 Oeste 0 1012.2 2.5 90
2017-12-31 23:00:00 9.8 9 Oeste 20 Oeste 0 1011.6 3.1 89
2017-12-31 22:00:00 10.4 9 Oeste 17 Oeste 0 1010.5 3.5 86
2017-12-31 21:00:00 9.9 10 Oeste 18 Oeste 0 1009.7 3.9 87
2017-12-31 20:00:00 10.8 7 Oeste 16 Noroeste 0 1008.5 4 85
2017-12-31 19:00:00 11.7 5 Sudoeste 15 Noroeste 0 1007 3.4 82
2017-12-31 18:00:00 13 14 Oeste 35 Oeste 0 1005.8 3 77
2017-12-31 17:00:00 14.4 15 Oeste 37 Oeste 0.2 1004.5 1.2 82
2017-12-31 16:00:00 15.1 16 Sudoeste 35 Oeste 0 1003.6 -0.3 79
2017-12-31 15:00:00 15.8 9 Sudoeste 34 Sudoeste 0 1002.8 -1.8 72
2017-12-31 14:00:00 16.2 15 Sudoeste 31 Sudoeste 0 1003.3 -1.4 68
2017-12-31 13:00:00 14.6 11 Sudoeste 27 Sudoeste 0 1003.9 -0.3 76
2017-12-31 12:00:00 13.1 8 Sudoeste 18 Sudoeste 0 1004.6 0.4 83
2017-12-31 11:00:00 10.2 2 Norte 7 Nordeste 0 1004.7 0.7 96
2017-12-31 10:00:00 8.7 5 Este 9 Sudeste 0 1004.2 0.3 100
2017-12-31 09:00:00 7.3 3 Sudeste 5 Sur 0 1004.2 0.4 100
2017-12-31 08:00:00 7.1 0 Calma 6 Sudeste 0 1004 0.6 100
2017-12-31 07:00:00 7.7 2 Sudoeste 6 Oeste 0 1003.9 0 100
2017-12-31 06:00:00 7.4 0 Calma 6 Noroeste 0 1003.8 -0.9 98
2017-12-31 05:00:00 8.3 5 Este 10 Sudeste 0 1003.4 -1.9 96
2017-12-31 04:00:00 9.2 4 Sudeste 9 Este 0 1003.9 -1.6 96
2017-12-31 03:00:00 9.9 2 Nordeste 7 Oeste 0 1004.7 -0.7 94
2017-12-31 02:00:00 10.5 5 Sudoeste 9 Sudoeste 0 1005.3 -0.3 92
2017-12-31 01:00:00 9.8 2 Sur 7 Sur 0 1005.5 -0.1 94